createdAt,value
2022-09-02T02:14:07.471Z,1.80
2022-09-02T02:18:18.139Z,2.00
2022-09-02T03:15:46.473Z,2.15
2022-09-02T05:31:38.918Z,1.92
2022-09-02T05:44:17.006Z,2.35
2022-09-02T05:47:26.626Z,2.30
2022-09-02T05:50:22.731Z,2.40
2022-09-02T05:57:19.457Z,2.40
2022-09-02T05:59:57.313Z,2.22
2022-09-02T06:02:33.289Z,2.50
2022-09-02T06:06:22.927Z,2.10
2022-09-02T06:09:03.759Z,2.20
2022-09-02T06:36:40.010Z,2.80
2022-09-02T06:44:16.527Z,2.80
2022-09-02T08:19:27.891Z,3.60
2022-09-02T08:22:04.098Z,3.80
2022-09-02T08:24:32.982Z,4.07
2022-09-02T08:27:01.544Z,4.00
2022-09-02T08:29:29.806Z,4.18
2022-09-02T08:31:57.980Z,4.00
2022-09-02T08:34:28.391Z,3.47
2022-09-02T08:36:57.868Z,3.70
2022-09-02T08:39:26.338Z,4.00
2022-09-02T08:42:05.958Z,4.07
2022-09-02T08:44:38.126Z,4.15
2022-09-02T08:47:12.194Z,4.05
2022-09-02T08:49:46.629Z,3.78
2022-09-02T08:52:23.922Z,4.05
2022-09-02T08:54:56.369Z,4.20
2022-09-02T08:57:27.579Z,4.20
2022-09-02T09:00:00.892Z,3.92
2022-09-02T09:02:45.969Z,4.78
2022-09-02T09:05:32.686Z,4.35
2022-09-02T09:08:13.969Z,4.07
2022-09-02T09:10:57.193Z,4.70
2022-09-02T09:14:11.130Z,4.13
2022-09-02T09:16:49.633Z,4.22
2022-09-02T09:19:23.801Z,5.13
2022-09-02T09:21:56.565Z,4.10
2022-09-02T09:24:33.391Z,4.63
2022-09-02T09:27:02.818Z,4.53
2022-09-02T09:29:34.545Z,4.28
2022-09-02T09:32:04.368Z,4.35
2022-09-02T09:35:03.329Z,4.13
2022-09-02T09:37:39.527Z,4.55
2022-09-02T09:40:32.328Z,4.30
2022-09-02T09:43:16.020Z,4.20
2022-09-02T09:45:47.204Z,4.00
2022-09-02T09:48:23.507Z,4.60
2022-09-02T09:51:17.223Z,4.13
2022-09-02T09:53:47.228Z,4.65
2022-09-02T09:56:29.953Z,5.00
2022-09-02T09:58:58.246Z,4.80
2022-09-02T10:01:30.965Z,4.75
2022-09-02T10:04:02.021Z,4.07
2022-09-02T10:06:41.865Z,4.47
2022-09-02T10:09:33.819Z,4.97
2022-09-02T10:12:05.381Z,4.07
2022-09-02T10:14:37.918Z,4.25
2022-09-02T10:17:28.772Z,3.97
2022-09-02T10:20:05.127Z,4.15
2022-09-02T10:23:05.933Z,4.90
2022-09-02T10:25:48.725Z,5.45
2022-09-02T10:28:34.687Z,4.70
2022-09-02T10:31:13.275Z,4.88
2022-09-02T10:33:58.297Z,4.40
2022-09-02T10:36:36.299Z,4.55
2022-09-02T10:39:19.652Z,5.00
2022-09-02T10:41:50.157Z,5.28
2022-09-02T10:44:31.360Z,4.85
2022-09-02T10:47:05.484Z,4.50
2022-09-02T10:50:01.503Z,4.78
2022-09-02T10:52:55.045Z,4.60
2022-09-02T10:55:37.980Z,4.63
2022-09-02T10:58:13.253Z,4.80
2022-09-02T11:00:50.574Z,5.35
2022-09-02T11:03:25.434Z,4.88
2022-09-02T11:05:58.608Z,4.43
2022-09-02T11:08:36.758Z,4.68
2022-09-02T11:11:09.876Z,4.10
2022-09-02T11:13:58.792Z,4.72
2022-09-02T11:16:32.517Z,4.85
2022-09-02T11:19:04.609Z,4.70
2022-09-02T11:21:47.927Z,4.80
2022-09-02T11:24:22.460Z,5.18
2022-09-02T11:26:59.712Z,4.53
2022-09-02T11:29:41.119Z,4.47
2022-09-02T11:32:18.500Z,4.53
2022-09-02T11:34:50.626Z,4.35
2022-09-02T11:37:31.948Z,3.95
2022-09-02T11:40:30.406Z,4.03
2022-09-02T11:43:09.089Z,4.20
2022-09-02T11:46:07.556Z,3.88
2022-09-02T11:48:57.159Z,4.30
2022-09-02T11:51:45.081Z,4.40
2022-09-02T11:54:16.580Z,3.97
2022-09-02T11:56:49.095Z,3.35
2022-09-02T11:59:25.607Z,3.97
2022-09-02T12:01:56.981Z,3.67
2022-09-02T12:04:58.516Z,3.47
2022-09-02T12:07:32.996Z,3.35
2022-09-02T12:10:02.822Z,3.40
2022-09-02T12:13:08.513Z,3.22
2022-09-02T12:15:47.128Z,2.90
2022-09-02T12:18:32.015Z,2.90
2022-09-02T12:21:16.222Z,3.08
2022-09-02T12:24:25.113Z,3.60
2022-09-02T12:27:25.704Z,3.05
2022-09-02T12:29:55.651Z,3.28
2022-09-02T12:33:04.919Z,3.30
2022-09-02T12:35:54.238Z,3.60
2022-09-02T12:38:42.907Z,3.28
2022-09-02T12:41:30.213Z,4.15
2022-09-02T12:44:27.592Z,4.43
2022-09-02T12:47:10.154Z,5.45
2022-09-02T12:49:48.029Z,5.22
2022-09-02T12:52:44.716Z,5.00
2022-09-02T12:55:22.026Z,5.05
2022-09-02T12:57:54.071Z,5.05
2022-09-02T13:00:32.670Z,5.15
2022-09-02T13:03:24.842Z,5.60
2022-09-02T13:06:01.066Z,5.63
2022-09-02T13:09:17.268Z,5.63
2022-09-02T13:12:27.816Z,6.68
2022-09-02T13:15:04.608Z,5.13
2022-09-02T13:18:03.402Z,5.35
2022-09-02T13:21:26.647Z,4.90
2022-09-02T13:24:40.734Z,5.07
2022-09-02T13:27:58.852Z,5.20
2022-09-02T13:30:45.048Z,5.00
2022-09-02T13:33:14.320Z,4.70
2022-09-02T13:35:43.581Z,4.20
2022-09-02T13:38:15.663Z,4.03
2022-09-02T13:40:47.815Z,3.90
2022-09-02T13:43:21.192Z,3.85
2022-09-02T13:45:51.566Z,3.83
2022-09-02T13:48:24.407Z,3.67
2022-09-02T13:50:55.858Z,3.38
2022-09-02T13:54:18.264Z,3.25
2022-09-02T13:56:27.311Z,2.55
2022-09-02T13:58:57.751Z,2.63
2022-09-02T14:01:30.981Z,3.00
2022-09-02T14:06:41.579Z,2.50
2022-09-02T14:09:20.610Z,2.80
2022-09-02T14:11:51.528Z,2.38
2022-09-02T14:14:25.024Z,2.42
2022-09-02T14:16:53.879Z,2.40
2022-09-02T14:19:26.784Z,2.50
2022-09-02T14:21:57.476Z,2.95
2022-09-02T14:24:31.645Z,2.40
2022-09-02T14:27:02.125Z,2.75
2022-09-02T14:29:32.361Z,2.65
2022-09-02T14:32:15.292Z,2.45
2022-09-02T14:34:47.063Z,2.58
2022-09-02T14:37:23.676Z,2.78
2022-09-02T14:40:12.625Z,2.80
2022-09-02T14:42:57.806Z,2.83
2022-09-02T14:45:29.319Z,2.70
2022-09-02T14:48:01.519Z,2.70
2022-09-02T14:50:36.627Z,2.78
2022-09-02T14:53:10.548Z,2.33
2022-09-02T14:55:49.179Z,2.38
2022-09-02T14:58:36.019Z,2.90
2022-09-02T15:01:06.499Z,2.90
2022-09-02T15:03:39.533Z,2.72
2022-09-02T15:06:10.878Z,2.67
2022-09-02T15:08:44.608Z,2.90
2022-09-02T15:11:18.009Z,2.58
2022-09-02T15:13:47.723Z,2.72
2022-09-02T15:16:16.221Z,2.90
2022-09-02T15:18:44.575Z,2.58
2022-09-02T15:21:12.912Z,3.03
2022-09-02T15:23:42.016Z,2.60
2022-09-02T15:26:10.583Z,2.70
2022-09-02T15:28:39.223Z,2.60
2022-09-02T15:31:09.346Z,2.95
2022-09-02T15:33:41.802Z,2.50
2022-09-02T15:36:12.747Z,2.53
2022-09-02T15:38:42.572Z,3.00
2022-09-02T15:41:17.162Z,3.00
2022-09-02T15:43:47.688Z,2.72
2022-09-02T15:46:26.044Z,2.70
2022-09-02T15:49:03.057Z,2.45
2022-09-02T15:51:32.411Z,2.65
2022-09-02T15:54:06.926Z,2.38
2022-09-02T15:56:40.959Z,2.20
2022-09-02T15:59:13.052Z,2.40
2022-09-02T16:01:46.245Z,2.30
2022-09-02T16:04:17.229Z,2.50
2022-09-02T16:06:49.137Z,2.50
2022-09-02T16:09:19.248Z,2.40
2022-09-02T16:11:50.411Z,2.20
2022-09-02T16:14:20.483Z,2.28
2022-09-02T16:16:55.028Z,2.65
2022-09-02T16:19:26.923Z,2.58
2022-09-02T16:21:58.298Z,2.03
2022-09-02T16:24:26.634Z,2.10
2022-09-02T16:26:54.900Z,2.08
2022-09-02T16:29:28.165Z,2.28
2022-09-02T16:32:21.410Z,2.00
2022-09-02T16:34:49.153Z,2.08
2022-09-02T16:37:17.571Z,1.90
2022-09-02T16:39:46.136Z,2.10
2022-09-02T16:42:14.568Z,1.77
2022-09-02T16:44:42.809Z,2.10
2022-09-02T16:47:13.719Z,2.08
2022-09-02T16:49:46.080Z,2.20
2022-09-02T16:52:14.335Z,1.90
2022-09-02T16:54:43.501Z,2.10
2022-09-02T16:57:11.716Z,2.20
2022-09-02T16:59:40.335Z,2.30
2022-09-02T17:02:08.576Z,2.25
2022-09-02T17:04:38.162Z,1.92
2022-09-02T17:07:06.493Z,1.80
2022-09-02T17:09:34.735Z,1.80
2022-09-02T17:12:03.356Z,2.30
2022-09-02T17:14:31.511Z,1.90
2022-09-02T17:16:59.933Z,2.03
2022-09-02T17:19:32.074Z,1.80
2022-09-02T17:22:02.320Z,2.17
2022-09-02T17:24:30.856Z,1.60
2022-09-02T17:27:00.506Z,2.05
2022-09-02T17:32:18.943Z,2.03
2022-09-02T17:34:49.429Z,2.35
2022-09-02T17:37:19.245Z,2.08
2022-09-02T17:39:47.624Z,2.10
2022-09-02T17:42:15.864Z,2.05
2022-09-02T17:44:44.534Z,1.88
2022-09-02T17:47:15.756Z,2.20
2022-09-02T17:49:45.128Z,2.10
2022-09-02T17:52:15.938Z,2.33
2022-09-02T17:54:47.607Z,2.03
2022-09-02T17:57:42.787Z,2.25
2022-09-02T18:00:14.519Z,1.70
2022-09-02T18:03:21.652Z,1.92
2022-09-02T18:06:03.956Z,1.92
2022-09-02T18:08:43.343Z,2.05
2022-09-02T18:11:15.230Z,2.10
2022-09-02T18:13:54.529Z,1.88
2022-09-02T18:16:36.839Z,2.00
2022-09-02T18:19:21.129Z,1.80
2022-09-02T18:22:02.103Z,2.30
2022-09-02T18:24:47.506Z,2.20
2022-09-02T18:27:26.170Z,2.35
2022-09-02T18:30:06.337Z,1.90
2022-09-02T18:33:19.061Z,2.40
2022-09-02T18:35:59.364Z,2.05
2022-09-02T18:38:42.188Z,2.38
2022-09-02T18:41:29.352Z,2.22
2022-09-02T18:44:15.594Z,2.10
2022-09-02T18:46:52.810Z,2.42
2022-09-02T18:49:23.745Z,2.28
2022-09-02T18:51:58.470Z,2.17
2022-09-02T18:54:30.659Z,2.50
2022-09-02T18:57:01.307Z,2.47
2022-09-02T18:59:40.711Z,2.55
2022-09-02T19:02:22.252Z,2.95
2022-09-02T19:04:50.866Z,2.33
2022-09-02T19:07:39.013Z,2.40
2022-09-02T19:10:09.330Z,2.60
2022-09-02T19:12:38.178Z,2.33
2022-09-02T19:15:13.210Z,2.25
2022-09-02T19:17:42.357Z,2.35
2022-09-02T19:20:11.417Z,2.60
2022-09-02T19:22:44.097Z,2.38
2022-09-02T19:25:15.932Z,2.42
2022-09-02T19:27:49.306Z,2.25
2022-09-02T19:30:22.237Z,2.50
2022-09-02T19:32:54.178Z,2.50
2022-09-02T19:35:28.303Z,2.55
2022-09-02T19:37:58.570Z,2.53
2022-09-02T19:40:33.115Z,2.13
2022-09-02T19:43:03.716Z,2.60
2022-09-02T19:45:36.172Z,2.33
2022-09-02T19:48:11.207Z,2.22
2022-09-02T19:50:44.891Z,2.35
2022-09-02T19:53:30.314Z,2.20
2022-09-02T19:55:58.922Z,2.30
2022-09-02T19:58:27.851Z,2.50
2022-09-02T20:00:57.554Z,2.50
2022-09-02T20:03:26.036Z,2.53
2022-09-02T20:05:54.643Z,2.58
2022-09-02T20:08:28.905Z,2.58
2022-09-02T20:19:57.810Z,2.53
2022-09-02T20:25:29.515Z,2.40
2022-09-02T20:28:12.401Z,2.50
2022-09-02T20:30:54.011Z,2.85
2022-09-02T20:33:29.120Z,2.47
2022-09-02T20:36:10.511Z,2.35
2022-09-02T20:39:07.835Z,2.58
2022-09-02T20:41:46.550Z,2.85
2022-09-02T20:44:57.444Z,2.60
2022-09-02T20:47:53.392Z,3.22
2022-09-02T20:50:46.599Z,3.22
2022-09-02T20:53:39.783Z,3.28
2022-09-02T20:56:21.475Z,3.42
2022-09-02T20:58:58.865Z,3.35
2022-09-02T21:01:34.894Z,3.33
2022-09-02T21:04:18.919Z,3.60
2022-09-02T21:06:55.604Z,3.03
2022-09-02T21:09:39.225Z,3.25
2022-09-02T21:12:25.173Z,2.80
2022-09-02T21:15:05.573Z,2.92
2022-09-02T21:17:48.371Z,3.03
2022-09-02T21:20:25.954Z,3.10
2022-09-02T21:23:00.471Z,3.25
2022-09-02T21:25:40.343Z,2.80
2022-09-02T21:28:14.992Z,2.95
2022-09-02T21:30:50.397Z,2.83
2022-09-02T21:33:22.513Z,2.92
2022-09-02T21:35:53.116Z,2.83
2022-09-02T21:38:33.469Z,3.10
2022-09-02T21:41:28.150Z,2.50
2022-09-02T21:44:09.934Z,2.83
2022-09-02T21:46:57.988Z,3.10
2022-09-02T21:49:55.262Z,3.35
2022-09-02T21:52:33.085Z,2.85
2022-09-02T21:55:11.452Z,2.50
2022-09-02T21:58:03.582Z,3.05
2022-09-02T22:00:33.455Z,3.00
2022-09-02T22:03:12.929Z,2.75
2022-09-02T22:05:52.501Z,2.83
2022-09-02T22:08:31.832Z,3.00
2022-09-02T22:11:10.710Z,2.97
2022-09-02T22:13:42.654Z,2.42
2022-09-02T22:16:35.195Z,2.67
2022-09-02T22:19:10.129Z,2.80
2022-09-02T22:21:48.780Z,2.63
2022-09-02T22:24:21.182Z,2.80
2022-09-02T22:26:54.766Z,2.90
2022-09-02T22:29:41.624Z,2.78
2022-09-02T22:32:19.718Z,2.95
2022-09-02T22:35:00.202Z,2.70
2022-09-02T22:37:40.274Z,2.47
2022-09-02T22:40:17.315Z,2.67
2022-09-02T22:42:56.223Z,2.53
2022-09-02T22:45:53.254Z,2.95
2022-09-02T22:48:45.817Z,2.60
2022-09-02T22:51:39.121Z,2.55
2022-09-02T22:54:08.290Z,2.40
2022-09-02T22:56:43.945Z,2.47
2022-09-02T22:59:47.723Z,2.55
2022-09-02T23:02:25.825Z,2.60
2022-09-02T23:05:37.242Z,2.70
2022-09-02T23:08:08.905Z,2.70
2022-09-02T23:10:50.081Z,2.45
2022-09-02T23:13:32.546Z,2.30
2022-09-02T23:16:14.316Z,2.55
2022-09-02T23:19:02.293Z,3.00
2022-09-02T23:21:47.237Z,2.20
2022-09-02T23:24:26.872Z,2.40
2022-09-02T23:27:06.002Z,2.20
2022-09-02T23:29:35.811Z,2.50
2022-09-02T23:32:42.266Z,2.80
2022-09-02T23:35:24.526Z,2.28
2022-09-02T23:38:19.531Z,2.38
2022-09-02T23:40:52.649Z,2.47
2022-09-02T23:43:31.418Z,2.05
2022-09-02T23:46:05.977Z,2.30
2022-09-02T23:48:47.306Z,2.67
2022-09-02T23:51:24.592Z,2.45
2022-09-02T23:54:18.616Z,2.67
2022-09-02T23:57:15.444Z,2.53
